createdAt,value
2022-08-01T00:00:09.924Z,10.57
2022-08-01T00:02:16.175Z,9.65
2022-08-01T00:04:19.344Z,10.02
2022-08-01T00:06:22.457Z,10.70
2022-08-01T00:08:25.787Z,9.13
2022-08-01T00:10:29.197Z,11.95
2022-08-01T00:12:32.287Z,13.48
2022-08-01T00:14:35.387Z,11.07
2022-08-01T00:16:38.794Z,8.90
2022-08-01T00:18:44.607Z,9.02
2022-08-01T00:20:47.776Z,10.43
2022-08-01T00:22:50.902Z,8.85
2022-08-01T00:24:54.084Z,10.07
2022-08-01T00:26:57.210Z,9.27
2022-08-01T00:29:00.362Z,8.05
2022-08-01T00:31:03.496Z,9.95
2022-08-01T00:33:06.760Z,8.63
2022-08-01T00:35:12.966Z,15.23
2022-08-01T00:37:16.292Z,8.93
2022-08-01T00:39:19.510Z,7.78
2022-08-01T00:41:22.660Z,7.80
2022-08-01T00:43:26.010Z,9.57
2022-08-01T00:45:29.175Z,6.50
2022-08-01T00:47:32.277Z,8.07
2022-08-01T00:49:36.009Z,7.50
2022-08-01T00:51:42.324Z,6.60
2022-08-01T00:53:51.920Z,11.35
2022-08-01T00:55:55.850Z,8.70
2022-08-01T00:58:02.275Z,6.35
2022-08-01T01:00:06.787Z,7.40
2022-08-01T01:02:14.733Z,8.43
2022-08-01T01:04:19.163Z,6.97
2022-08-01T01:06:31.495Z,6.68
2022-08-01T01:08:41.409Z,7.22
2022-08-01T01:12:50.303Z,9.00
2022-08-01T01:14:56.627Z,9.68
2022-08-01T01:17:00.427Z,8.18
2022-08-01T01:19:05.339Z,7.63
2022-08-01T01:21:11.554Z,7.15
2022-08-01T01:23:25.984Z,8.05
2022-08-01T01:25:41.364Z,8.82
2022-08-01T01:27:48.891Z,7.25
2022-08-01T01:29:59.856Z,6.82
2022-08-01T01:32:06.208Z,6.65
2022-08-01T01:34:11.283Z,7.80
2022-08-01T01:36:21.385Z,7.57
2022-08-01T01:38:25.866Z,6.82
2022-08-01T01:40:29.317Z,7.28
2022-08-01T01:42:33.689Z,8.57
2022-08-01T01:44:37.494Z,8.00
2022-08-01T01:46:43.740Z,6.57
2022-08-01T01:48:48.069Z,8.48
2022-08-01T01:50:51.506Z,8.30
2022-08-01T01:52:55.469Z,8.18
2022-08-01T01:54:58.714Z,7.28
2022-08-01T01:57:03.573Z,7.55
2022-08-01T01:59:06.716Z,9.23
2022-08-01T02:01:10.339Z,7.32
2022-08-01T02:03:21.285Z,7.90
2022-08-01T02:05:25.835Z,8.93
2022-08-01T02:07:29.799Z,10.98
2022-08-01T02:09:33.708Z,7.60
2022-08-01T02:11:37.299Z,7.88
2022-08-01T02:14:02.651Z,7.40
2022-08-01T02:16:06.512Z,8.85
2022-08-01T02:18:10.388Z,9.32
2022-08-01T02:20:16.272Z,8.40
2022-08-01T02:22:21.309Z,8.48
2022-08-01T02:24:30.304Z,8.50
2022-08-01T02:26:34.432Z,8.18
2022-08-01T02:28:39.824Z,8.20
2022-08-01T02:30:45.800Z,7.60
2022-08-01T02:32:50.596Z,11.57
2022-08-01T02:34:55.350Z,9.73
2022-08-01T02:37:02.158Z,11.23
2022-08-01T02:39:05.921Z,11.25
2022-08-01T02:41:10.067Z,11.00
2022-08-01T02:43:13.997Z,8.10
2022-08-01T02:45:19.443Z,8.70
2022-08-01T02:47:23.982Z,12.13
2022-08-01T02:49:27.451Z,8.10
2022-08-01T02:51:31.613Z,10.20
2022-08-01T02:53:43.895Z,8.05
2022-08-01T02:55:48.220Z,10.30
2022-08-01T02:57:59.950Z,11.57
2022-08-01T03:00:04.424Z,8.48
2022-08-01T03:02:09.275Z,8.80
2022-08-01T03:04:13.465Z,10.40
2022-08-01T03:06:17.082Z,9.88
2022-08-01T03:08:21.235Z,12.65
2022-08-01T03:10:28.186Z,8.90
2022-08-01T03:12:33.090Z,13.35
2022-08-01T03:14:38.017Z,9.32
2022-08-01T03:16:44.252Z,12.07
2022-08-01T03:18:48.364Z,9.52
2022-08-01T03:20:52.344Z,9.30
2022-08-01T03:22:56.510Z,11.27
2022-08-01T03:25:00.613Z,15.05
2022-08-01T03:27:07.855Z,10.20
2022-08-01T03:29:14.026Z,9.48
2022-08-01T03:31:17.880Z,11.75
2022-08-01T03:33:21.099Z,9.52
2022-08-01T03:35:27.145Z,9.50
2022-08-01T03:37:34.606Z,9.98
2022-08-01T03:39:41.162Z,9.77
2022-08-01T03:41:47.095Z,10.98
2022-08-01T03:43:55.840Z,11.05
2022-08-01T03:46:04.863Z,10.95
2022-08-01T03:48:10.330Z,11.38
2022-08-01T03:50:14.829Z,10.57
2022-08-01T03:52:18.396Z,11.80
2022-08-01T03:54:23.031Z,9.02
2022-08-01T03:56:26.964Z,10.88
2022-08-01T03:58:30.708Z,9.88
2022-08-01T04:00:37.325Z,10.30
2022-08-01T04:02:40.668Z,9.48
2022-08-01T04:04:44.148Z,8.65
2022-08-01T04:06:47.267Z,10.40
2022-08-01T04:08:50.656Z,9.88
2022-08-01T04:10:53.846Z,11.48
2022-08-01T04:12:57.244Z,11.77
2022-08-01T04:15:00.386Z,14.32
2022-08-01T04:17:06.298Z,10.52
2022-08-01T04:19:09.572Z,10.68
2022-08-01T04:21:12.976Z,13.82
2022-08-01T04:23:17.593Z,10.35
2022-08-01T04:25:23.457Z,9.75
2022-08-01T04:27:50.193Z,8.63
2022-08-01T04:29:53.312Z,8.98
2022-08-01T04:31:57.434Z,13.77
2022-08-01T04:34:04.348Z,9.00
2022-08-01T04:36:08.220Z,10.00
2022-08-01T04:38:12.203Z,7.82
2022-08-01T04:40:16.435Z,10.57
2022-08-01T04:42:28.101Z,11.20
2022-08-01T04:44:33.674Z,12.77
2022-08-01T04:46:37.019Z,10.25
2022-08-01T04:48:40.575Z,7.72
2022-08-01T04:50:46.623Z,9.98
2022-08-01T04:52:50.040Z,9.02
2022-08-01T04:54:53.369Z,10.48
2022-08-01T04:56:56.710Z,9.98
2022-08-01T04:58:59.899Z,12.85
2022-08-01T05:01:03.244Z,10.18
2022-08-01T05:03:06.521Z,11.45
2022-08-01T05:05:10.046Z,10.10
2022-08-01T05:07:16.170Z,13.20
2022-08-01T05:09:19.273Z,9.05
2022-08-01T05:11:22.592Z,9.25
2022-08-01T05:13:25.903Z,9.20
2022-08-01T05:15:29.144Z,10.98
2022-08-01T05:17:32.280Z,12.75
2022-08-01T05:19:35.800Z,11.27
2022-08-01T05:21:39.262Z,11.48
2022-08-01T05:23:45.031Z,15.48
2022-08-01T05:25:56.090Z,13.13
2022-08-01T05:28:00.644Z,14.43
2022-08-01T05:30:04.328Z,16.17
2022-08-01T05:32:08.512Z,13.48
2022-08-01T05:34:15.211Z,14.23
2022-08-01T05:36:18.555Z,13.13
2022-08-01T05:38:21.772Z,11.38
2022-08-01T05:40:27.514Z,13.57
2022-08-01T05:42:30.624Z,16.23
2022-08-01T05:44:33.825Z,12.95
2022-08-01T05:46:37.284Z,13.73
2022-08-01T05:48:40.479Z,9.07
2022-08-01T05:50:43.689Z,14.57
2022-08-01T05:52:46.800Z,19.00
2022-08-01T05:54:49.950Z,10.52
2022-08-01T05:56:55.700Z,13.35
2022-08-01T05:58:58.882Z,12.77
2022-08-01T06:01:02.012Z,14.13
2022-08-01T06:03:05.212Z,16.23
2022-08-01T06:05:12.730Z,9.27
2022-08-01T06:07:16.440Z,11.10
2022-08-01T06:09:19.548Z,14.88
2022-08-01T06:11:22.837Z,12.55
2022-08-01T06:13:28.650Z,7.72
2022-08-01T06:15:31.848Z,9.98
2022-08-01T06:17:35.124Z,9.35
2022-08-01T06:19:38.286Z,6.90
2022-08-01T06:21:41.472Z,7.82
2022-08-01T06:23:44.647Z,8.77
2022-08-01T06:25:47.783Z,11.00
2022-08-01T06:27:50.998Z,6.78
2022-08-01T06:29:56.743Z,7.70
2022-08-01T06:31:59.880Z,9.02
2022-08-01T06:34:03.069Z,6.13
2022-08-01T06:36:06.314Z,6.30
2022-08-01T06:38:09.497Z,4.68
2022-08-01T06:40:16.882Z,4.95
2022-08-01T06:42:20.619Z,9.13
2022-08-01T06:44:23.752Z,6.15
2022-08-01T06:46:30.320Z,5.93
2022-08-01T06:48:34.834Z,5.38
2022-08-01T06:50:38.012Z,10.13
2022-08-01T06:52:41.340Z,8.52
2022-08-01T06:54:44.472Z,5.72
2022-08-01T06:56:47.587Z,7.50
2022-08-01T06:58:50.914Z,6.82
2022-08-01T07:00:57.578Z,7.95
2022-08-01T07:03:03.582Z,4.53
2022-08-01T07:05:07.027Z,6.35
2022-08-01T07:07:10.151Z,5.85
2022-08-01T07:09:14.632Z,5.90
2022-08-01T07:11:18.014Z,8.80
2022-08-01T07:13:21.207Z,5.57
2022-08-01T07:15:24.384Z,6.10
2022-08-01T07:17:27.484Z,9.98
2022-08-01T07:19:33.284Z,5.93
2022-08-01T07:21:39.642Z,6.90
2022-08-01T07:23:45.951Z,4.55
2022-08-01T07:25:50.393Z,6.78
2022-08-01T07:27:56.069Z,4.55
2022-08-01T07:29:59.204Z,9.68
2022-08-01T07:32:02.433Z,10.88
2022-08-01T07:34:05.821Z,13.63
2022-08-01T07:36:11.536Z,6.25
2022-08-01T07:38:14.596Z,6.10
2022-08-01T07:40:18.029Z,7.13
2022-08-01T07:42:21.155Z,7.93
2022-08-01T07:44:24.301Z,8.73
2022-08-01T07:46:31.534Z,5.32
2022-08-01T07:48:34.998Z,4.20
2022-08-01T07:50:38.131Z,5.72
2022-08-01T07:52:43.913Z,4.90
2022-08-01T07:54:52.028Z,7.03
2022-08-01T07:56:55.437Z,4.20
2022-08-01T07:59:01.167Z,5.18
2022-08-01T08:01:04.309Z,7.63
2022-08-01T08:03:07.777Z,4.10
2022-08-01T08:05:10.977Z,5.22
2022-08-01T08:07:14.935Z,3.50
2022-08-01T08:09:20.719Z,5.72
2022-08-01T08:11:23.855Z,5.13
2022-08-01T08:13:26.969Z,3.45
2022-08-01T08:15:30.360Z,3.83
2022-08-01T08:17:36.093Z,6.85
2022-08-01T08:19:39.442Z,5.65
2022-08-01T08:21:42.915Z,6.45
2022-08-01T08:23:46.086Z,3.15
2022-08-01T08:25:51.849Z,5.30
2022-08-01T08:27:55.045Z,4.70
2022-08-01T08:29:58.199Z,5.32
2022-08-01T08:32:02.098Z,4.90
2022-08-01T08:34:05.231Z,6.85
2022-08-01T08:36:08.909Z,4.78
2022-08-01T08:38:12.011Z,4.25
2022-08-01T08:40:16.172Z,4.43
2022-08-01T08:42:22.098Z,4.45
2022-08-01T08:44:25.229Z,4.03
2022-08-01T08:46:29.089Z,2.80
2022-08-01T08:48:32.338Z,4.93
2022-08-01T08:50:35.588Z,2.33
2022-08-01T08:52:40.295Z,3.58
2022-08-01T08:54:44.545Z,4.30
2022-08-01T08:56:47.961Z,3.88
2022-08-01T08:58:54.206Z,1.50
2022-08-01T09:00:57.444Z,1.85
2022-08-01T09:03:00.631Z,1.80
2022-08-01T09:05:04.070Z,1.80
2022-08-01T09:07:07.773Z,2.95
2022-08-01T09:09:11.525Z,1.45
2022-08-01T09:11:18.872Z,1.60
2022-08-01T09:13:26.376Z,1.73
2022-08-01T09:15:42.081Z,2.97
2022-08-01T09:17:45.260Z,2.53
2022-08-01T09:19:49.596Z,1.92
2022-08-01T09:21:58.373Z,4.13
2022-08-01T09:24:02.219Z,3.85
2022-08-01T09:26:05.349Z,3.60
2022-08-01T09:28:08.605Z,2.45
2022-08-01T09:30:12.942Z,2.00
2022-08-01T09:32:18.808Z,2.45
2022-08-01T09:34:26.181Z,2.38
2022-08-01T09:36:44.933Z,1.90
2022-08-01T09:38:50.845Z,2.17
2022-08-01T09:40:55.623Z,4.03
2022-08-01T09:43:11.964Z,2.20
2022-08-01T09:45:41.084Z,3.58
2022-08-01T09:47:47.750Z,2.28
2022-08-01T09:49:55.109Z,2.53
2022-08-01T09:54:05.061Z,2.30
2022-08-01T09:56:11.900Z,2.58
2022-08-01T09:58:15.328Z,2.42
2022-08-01T10:00:29.579Z,4.07
2022-08-01T10:02:42.060Z,1.77
2022-08-01T10:04:51.092Z,2.20
2022-08-01T10:07:05.042Z,1.93
2022-08-01T10:09:08.526Z,3.28
2022-08-01T10:11:13.046Z,4.28
2022-08-01T10:13:19.812Z,2.85
2022-08-01T10:15:25.210Z,3.67
2022-08-01T10:17:50.332Z,4.05
2022-08-01T10:19:58.241Z,1.88
2022-08-01T10:22:09.014Z,2.17
2022-08-01T10:24:14.333Z,1.73
2022-08-01T10:26:17.708Z,1.67
2022-08-01T10:28:24.123Z,2.85
2022-08-01T10:30:28.024Z,3.63
2022-08-01T10:32:35.112Z,1.60
2022-08-01T10:34:39.284Z,1.75
2022-08-01T10:36:50.806Z,1.10
2022-08-01T10:38:55.486Z,2.47
2022-08-01T10:40:58.870Z,1.20
2022-08-01T10:43:02.574Z,1.88
2022-08-01T10:45:08.781Z,2.28
2022-08-01T10:47:13.398Z,1.48
2022-08-01T10:49:19.327Z,1.58
2022-08-01T10:51:27.089Z,0.90
2022-08-01T10:53:54.049Z,1.85
2022-08-01T10:56:01.506Z,1.40
2022-08-01T10:58:09.523Z,2.38
2022-08-01T11:00:19.875Z,1.20
2022-08-01T11:02:33.055Z,2.35
2022-08-01T11:04:44.339Z,5.75
2022-08-01T11:06:51.175Z,4.00
2022-08-01T11:08:58.089Z,2.13
2022-08-01T11:11:04.717Z,1.75
2022-08-01T11:13:09.166Z,2.70
2022-08-01T11:15:29.779Z,1.40
2022-08-01T11:17:37.596Z,1.30
2022-08-01T11:19:56.691Z,2.25
2022-08-01T11:22:01.656Z,1.45
2022-08-01T11:24:07.894Z,1.58
2022-08-01T11:26:17.822Z,3.05
2022-08-01T11:28:30.243Z,1.50
2022-08-01T11:30:38.256Z,1.63
2022-08-01T11:33:11.772Z,1.52
2022-08-01T11:35:10.636Z,1.90
2022-08-01T11:37:30.595Z,7.88
2022-08-01T11:39:38.985Z,2.58
2022-08-01T11:41:44.904Z,1.90
2022-08-01T11:43:58.421Z,10.32
2022-08-01T11:46:02.648Z,2.17
2022-08-01T11:48:19.067Z,4.40
2022-08-01T11:50:32.560Z,2.85
2022-08-01T11:52:35.976Z,2.20
2022-08-01T11:54:42.793Z,1.90
2022-08-01T11:56:46.634Z,1.90
2022-08-01T11:59:00.292Z,2.65
2022-08-01T12:01:03.501Z,3.20
2022-08-01T12:03:07.741Z,2.03
2022-08-01T12:05:12.367Z,2.58
2022-08-01T12:07:18.139Z,2.22
2022-08-01T12:09:23.653Z,2.75
2022-08-01T12:11:32.555Z,2.25
2022-08-01T12:13:44.209Z,2.55
2022-08-01T12:15:49.769Z,2.55
2022-08-01T12:17:59.510Z,2.85
2022-08-01T12:20:04.368Z,2.28
2022-08-01T12:22:08.687Z,4.95
2022-08-01T12:24:11.817Z,4.00
2022-08-01T12:26:31.828Z,4.18
2022-08-01T12:28:43.161Z,4.22
2022-08-01T12:30:49.142Z,7.03
2022-08-01T12:32:53.187Z,4.03
2022-08-01T12:34:56.808Z,3.78
2022-08-01T12:37:03.800Z,2.35
2022-08-01T12:39:07.896Z,2.25
2022-08-01T12:41:12.107Z,1.95
2022-08-01T12:43:27.317Z,1.17
2022-08-01T12:45:35.854Z,1.98
2022-08-01T12:47:40.155Z,2.75
2022-08-01T12:49:44.323Z,2.33
2022-08-01T12:51:57.383Z,1.00
2022-08-01T12:54:00.849Z,1.13
2022-08-01T12:56:04.061Z,1.13
2022-08-01T12:58:15.875Z,2.25
2022-08-01T13:00:21.681Z,2.30
2022-08-01T13:02:36.089Z,0.77
2022-08-01T13:04:51.094Z,0.40
2022-08-01T13:06:54.878Z,0.50
2022-08-01T13:09:06.330Z,1.60
2022-08-01T13:11:10.728Z,0.50
2022-08-01T13:13:23.514Z,0.88
2022-08-01T13:15:32.923Z,1.13
2022-08-01T13:17:41.498Z,3.92
2022-08-01T13:19:44.694Z,0.50
2022-08-01T13:21:57.498Z,1.63
2022-08-01T13:24:04.969Z,2.88
2022-08-01T13:26:08.308Z,0.75
2022-08-01T13:28:18.188Z,2.70
2022-08-01T13:30:21.876Z,0.60
2022-08-01T13:32:29.903Z,1.30
2022-08-01T13:34:38.292Z,0.80
2022-08-01T13:36:46.991Z,0.80
2022-08-01T13:38:52.401Z,0.68
2022-08-01T13:40:59.489Z,1.98
2022-08-01T13:43:02.647Z,1.42
2022-08-01T13:45:14.165Z,2.75
2022-08-01T13:47:18.045Z,2.50
2022-08-01T13:49:21.254Z,0.60
2022-08-01T13:51:28.589Z,0.93
2022-08-01T13:53:31.731Z,0.93
2022-08-01T13:55:35.669Z,0.70
2022-08-01T13:57:38.914Z,0.80
2022-08-01T13:59:42.130Z,0.40
2022-08-01T14:01:45.343Z,1.95
2022-08-01T14:03:48.563Z,0.70
2022-08-01T14:05:58.694Z,2.50
2022-08-01T14:08:04.960Z,1.10
2022-08-01T14:10:20.148Z,0.70
2022-08-01T14:12:23.823Z,4.40
2022-08-01T14:14:27.093Z,1.23
2022-08-01T14:16:30.226Z,2.28
2022-08-01T14:18:33.466Z,2.53
2022-08-01T14:20:41.213Z,3.47
2022-08-01T14:22:44.345Z,0.70
2022-08-01T14:24:50.057Z,3.83
2022-08-01T14:26:53.211Z,1.55
2022-08-01T14:28:56.378Z,2.25
2022-08-01T14:30:59.541Z,2.25
2022-08-01T14:33:02.686Z,1.67
2022-08-01T14:35:07.069Z,3.65
2022-08-01T14:37:10.191Z,1.75
2022-08-01T14:39:14.948Z,2.40
2022-08-01T14:41:20.918Z,1.00
2022-08-01T14:43:29.429Z,2.70
2022-08-01T14:45:35.749Z,0.95
2022-08-01T14:47:38.942Z,1.20
2022-08-01T14:49:42.181Z,2.00
2022-08-01T14:51:48.867Z,1.55
2022-08-01T14:53:53.265Z,1.40
2022-08-01T14:55:56.534Z,2.28
2022-08-01T14:58:02.351Z,1.50
2022-08-01T15:00:06.695Z,3.10
2022-08-01T15:02:10.106Z,2.80
2022-08-01T15:04:13.367Z,1.35
2022-08-01T15:06:16.482Z,3.15
2022-08-01T15:08:19.609Z,0.52
2022-08-01T15:10:22.774Z,1.50
2022-08-01T15:12:25.948Z,4.03
2022-08-01T15:14:31.711Z,1.23
2022-08-01T15:16:34.860Z,0.68
2022-08-01T15:18:37.997Z,1.70
2022-08-01T15:20:41.087Z,1.40
2022-08-01T15:22:44.214Z,0.80
2022-08-01T15:24:48.315Z,1.33
2022-08-01T15:26:51.465Z,0.77
2022-08-01T15:28:54.716Z,2.88
2022-08-01T15:31:00.440Z,1.25
2022-08-01T15:33:03.550Z,0.98
2022-08-01T15:35:07.600Z,1.30
2022-08-01T15:37:10.968Z,2.25
2022-08-01T15:39:14.216Z,0.82
2022-08-01T15:41:17.385Z,1.30
2022-08-01T15:43:20.526Z,0.73
2022-08-01T15:47:49.573Z,2.28
2022-08-01T15:49:52.841Z,0.93
2022-08-01T15:51:55.964Z,1.00
2022-08-01T15:53:59.504Z,0.80
2022-08-01T15:56:02.672Z,0.60
2022-08-01T15:58:06.329Z,0.70
2022-08-01T16:00:10.612Z,2.88
2022-08-01T16:02:13.782Z,1.67
2022-08-01T16:04:19.661Z,1.38
2022-08-01T16:06:22.816Z,0.70
2022-08-01T16:08:25.966Z,0.80
2022-08-01T16:10:29.268Z,1.50
2022-08-01T16:12:32.397Z,0.82
2022-08-01T16:14:35.544Z,0.77
2022-08-01T16:16:38.651Z,1.15
2022-08-01T16:18:41.815Z,1.48
2022-08-01T16:20:47.522Z,1.42
2022-08-01T16:22:50.679Z,3.30
2022-08-01T16:24:56.605Z,2.45
2022-08-01T16:29:06.686Z,5.15
2022-08-01T16:31:17.050Z,3.28
2022-08-01T16:33:46.833Z,1.10
2022-08-01T16:35:58.989Z,1.42
2022-08-01T16:38:02.417Z,1.08
2022-08-01T16:40:06.101Z,1.63
2022-08-01T16:42:09.478Z,2.00
2022-08-01T16:44:12.772Z,1.40
2022-08-01T16:46:15.887Z,1.33
2022-08-01T16:48:19.117Z,2.63
2022-08-01T16:50:28.619Z,1.10
2022-08-01T16:52:34.730Z,1.05
2022-08-01T16:54:45.427Z,0.98
2022-08-01T16:56:52.046Z,1.40
2022-08-01T16:58:55.369Z,1.23
2022-08-01T17:02:00.026Z,1.13
2022-08-01T17:03:47.201Z,4.00
2022-08-01T17:05:44.697Z,1.10
2022-08-01T17:07:50.464Z,1.60
2022-08-01T17:09:53.575Z,2.42
2022-08-01T17:11:56.669Z,1.17
2022-08-01T17:13:59.843Z,1.15
2022-08-01T17:16:02.930Z,1.67
2022-08-01T17:18:06.406Z,8.13
2022-08-01T17:20:10.313Z,1.02
2022-08-01T17:22:13.490Z,1.05
2022-08-01T17:24:19.232Z,1.15
2022-08-01T17:26:22.428Z,0.60
2022-08-01T17:28:25.538Z,0.98
2022-08-01T17:30:28.679Z,0.80
2022-08-01T17:32:31.858Z,0.68
2022-08-01T17:34:34.978Z,0.73
2022-08-01T17:36:38.117Z,0.70
2022-08-01T17:38:41.298Z,3.92
2022-08-01T17:40:46.980Z,2.35
2022-08-01T17:42:50.138Z,0.73
2022-08-01T17:44:54.236Z,1.08
2022-08-01T17:47:00.181Z,0.80
2022-08-01T17:49:04.224Z,0.80
2022-08-01T17:51:07.457Z,0.65
2022-08-01T17:53:10.587Z,1.33
2022-08-01T17:55:53.556Z,0.80
2022-08-01T17:57:39.401Z,0.60
2022-08-01T17:59:42.593Z,0.73
2022-08-01T18:01:47.010Z,0.93
2022-08-01T18:03:50.288Z,0.90
2022-08-01T18:05:54.268Z,0.88
2022-08-01T18:08:01.172Z,0.80
2022-08-01T18:10:05.769Z,1.00
2022-08-01T18:12:15.609Z,1.55
2022-08-01T18:14:21.354Z,0.70
2022-08-01T18:16:44.155Z,2.22
2022-08-01T18:18:47.271Z,0.80
2022-08-01T18:20:50.414Z,1.85
2022-08-01T18:22:53.573Z,0.73
2022-08-01T18:24:56.689Z,1.70
2022-08-01T18:26:59.768Z,1.35
2022-08-01T18:29:02.928Z,1.00
2022-08-01T18:31:08.767Z,1.02
2022-08-01T18:33:11.821Z,1.10
2022-08-01T18:35:19.601Z,1.42
2022-08-01T18:37:23.522Z,1.10
2022-08-01T18:39:31.060Z,1.20
2022-08-01T18:41:36.818Z,1.30
2022-08-01T18:43:46.044Z,1.20
2022-08-01T18:45:49.459Z,3.83
2022-08-01T18:47:55.272Z,3.22
2022-08-01T18:49:58.411Z,1.42
2022-08-01T18:52:01.610Z,7.00
2022-08-01T18:54:04.801Z,4.32
2022-08-01T18:56:07.965Z,1.30
2022-08-01T18:58:11.110Z,1.23
2022-08-01T19:00:14.929Z,2.88
2022-08-01T19:02:18.076Z,1.67
2022-08-01T19:04:23.832Z,1.40
2022-08-01T19:06:27.038Z,3.22
2022-08-01T19:08:30.200Z,1.73
2022-08-01T19:10:33.281Z,2.88
2022-08-01T19:12:36.436Z,1.70
2022-08-01T19:14:39.592Z,6.88
2022-08-01T19:16:42.724Z,4.30
2022-08-01T19:18:46.341Z,4.10
2022-08-01T19:20:52.161Z,2.80
2022-08-01T19:22:55.288Z,2.08
2022-08-01T19:24:58.460Z,3.40
2022-08-01T19:27:05.148Z,5.65
2022-08-01T19:29:15.864Z,2.08
2022-08-01T19:31:21.584Z,2.00
2022-08-01T19:33:25.191Z,2.00
2022-08-01T19:35:28.572Z,1.63
2022-08-01T19:37:34.329Z,2.78
2022-08-01T19:39:37.430Z,4.20
2022-08-01T19:41:41.077Z,3.25
2022-08-01T19:43:46.813Z,3.05
2022-08-01T19:45:50.905Z,1.90
2022-08-01T19:47:57.116Z,6.45
2022-08-01T19:50:01.056Z,5.63
2022-08-01T19:52:04.549Z,2.08
2022-08-01T19:54:11.358Z,2.42
2022-08-01T19:56:14.979Z,4.00
2022-08-01T19:58:26.918Z,5.38
2022-08-01T20:00:31.237Z,1.80
2022-08-01T20:02:35.199Z,4.45
2022-08-01T20:04:37.891Z,2.65
2022-08-01T20:06:40.692Z,3.05
2022-08-01T20:08:43.919Z,2.58
2022-08-01T20:10:49.362Z,5.35
2022-08-01T20:12:53.171Z,2.65
2022-08-01T20:14:56.460Z,2.10
2022-08-01T20:16:59.630Z,2.00
2022-08-01T20:19:02.744Z,3.83
2022-08-01T20:21:06.219Z,2.25
2022-08-01T20:23:18.119Z,2.33
2022-08-01T20:25:23.290Z,2.08
2022-08-01T20:27:30.673Z,3.85
2022-08-01T20:29:34.154Z,1.88
2022-08-01T20:31:43.006Z,3.50
2022-08-01T20:33:48.328Z,2.40
2022-08-01T20:35:53.753Z,2.35
2022-08-01T20:38:05.930Z,4.60
2022-08-01T20:40:12.433Z,3.13
2022-08-01T20:42:16.341Z,3.60
2022-08-01T20:44:22.742Z,3.53
2022-08-01T20:46:26.417Z,3.85
2022-08-01T20:48:29.858Z,2.50
2022-08-01T20:50:54.174Z,4.05
2022-08-01T20:52:56.130Z,2.30
2022-08-01T20:54:59.258Z,2.83
2022-08-01T20:57:05.687Z,3.45
2022-08-01T20:59:11.312Z,2.80
2022-08-01T21:01:39.831Z,5.03
2022-08-01T21:03:46.299Z,3.45
2022-08-01T21:05:55.985Z,2.47
2022-08-01T21:08:04.312Z,5.00
2022-08-01T21:10:08.826Z,2.40
2022-08-01T21:12:17.259Z,2.83
2022-08-01T21:14:21.271Z,2.78
2022-08-01T21:16:26.987Z,3.10
2022-08-01T21:18:37.489Z,5.15
2022-08-01T21:20:41.154Z,5.22
2022-08-01T21:22:51.543Z,2.97
2022-08-01T21:24:57.974Z,7.13
2022-08-01T21:27:02.421Z,2.80
2022-08-01T21:29:06.376Z,3.53
2022-08-01T21:31:09.550Z,6.72
2022-08-01T21:33:14.390Z,4.68
2022-08-01T21:35:22.400Z,7.97
2022-08-01T21:37:25.928Z,2.88
2022-08-01T21:39:29.359Z,3.75
2022-08-01T21:42:05.032Z,2.92
2022-08-01T21:43:56.008Z,4.78
2022-08-01T21:46:00.042Z,5.28
2022-08-01T21:48:04.565Z,3.83
2022-08-01T21:50:08.293Z,3.10
2022-08-01T21:52:14.661Z,3.92
2022-08-01T21:54:21.713Z,3.63
2022-08-01T21:56:27.888Z,4.38
2022-08-01T21:58:34.882Z,4.18
2022-08-01T22:00:39.727Z,3.45
2022-08-01T22:02:44.835Z,5.32
2022-08-01T22:04:49.732Z,6.40
2022-08-01T22:06:53.475Z,4.63
2022-08-01T22:09:04.049Z,5.47
2022-08-01T22:11:07.721Z,3.95
2022-08-01T22:13:10.933Z,7.18
2022-08-01T22:15:14.902Z,6.57
2022-08-01T22:17:20.352Z,3.58
2022-08-01T22:19:43.762Z,4.57
2022-08-01T22:21:47.501Z,3.70
2022-08-01T22:23:51.584Z,6.47
2022-08-01T22:25:57.340Z,4.00
2022-08-01T22:28:02.893Z,3.28
2022-08-01T22:30:13.154Z,3.47
2022-08-01T22:32:16.303Z,3.00
2022-08-01T22:34:19.840Z,7.88
2022-08-01T22:36:23.584Z,3.80
2022-08-01T22:38:26.688Z,5.00
2022-08-01T22:40:33.179Z,5.15
2022-08-01T22:42:42.577Z,11.10
2022-08-01T22:44:51.907Z,4.28
2022-08-01T22:47:00.492Z,7.47
2022-08-01T22:49:09.052Z,3.90
2022-08-01T22:51:17.354Z,3.67
2022-08-01T22:53:24.893Z,3.90
2022-08-01T22:55:57.796Z,5.50
2022-08-01T22:57:57.875Z,3.33
2022-08-01T23:00:02.343Z,5.72
2022-08-01T23:02:06.882Z,4.00
2022-08-01T23:04:12.746Z,4.93
2022-08-01T23:06:21.577Z,3.85
2022-08-01T23:08:24.826Z,6.78
2022-08-01T23:10:28.161Z,3.58
2022-08-01T23:12:31.902Z,4.57
2022-08-01T23:14:38.466Z,4.60
2022-08-01T23:16:42.274Z,3.35
2022-08-01T23:18:46.243Z,3.45
2022-08-01T23:20:50.356Z,4.00
2022-08-01T23:22:54.356Z,5.20
2022-08-01T23:25:04.232Z,3.83
2022-08-01T23:27:09.031Z,5.25
2022-08-01T23:29:12.612Z,4.22
2022-08-01T23:31:18.563Z,4.97
2022-08-01T23:33:21.872Z,4.55
2022-08-01T23:35:25.112Z,3.88
2022-08-01T23:37:28.297Z,4.85
2022-08-01T23:39:31.481Z,3.97
2022-08-01T23:41:46.879Z,5.20
2022-08-01T23:43:57.958Z,3.65
2022-08-01T23:46:04.214Z,6.82
2022-08-01T23:48:11.792Z,4.88
2022-08-01T23:50:15.660Z,3.70
2022-08-01T23:52:20.711Z,3.55
2022-08-01T23:54:25.181Z,8.50
2022-08-01T23:56:28.309Z,4.88
2022-08-01T23:58:31.626Z,6.72
